N5KR Weather Reports


Display with metric or nautical units.
time (UTC)temp
F
wind
direction
speed
MPH
gust
MPH
rain 1hr
in
rain 24hr
in
rain mn
in
humidity
%
barometer
mb
20210301042025 50 37 4.0 9.0 0.09 0.26 0.26 69 1017.3
20210301041022 49 33 3.0 9.0 0.11 0.26 0.26 72 1017.2
20210301040035 50 51 4.0 16.0 0.11 0.26 0.26 72 1017.0
20210301035337 49 49 5.0 15.0 0.11 0.26 0.26 77 1016.9
20210301034028 49 74 3.0 10.0 0.11 0.26 0.26 75 1016.8
20210301033024 50 29 6.0 12.0 0.10 0.25 0.25 70 1016.6
20210301032016 52 115 4.0 16.0 0.02 0.17 0.17 65 1017.1
20210301031021 52 53 3.0 10.0 0.00 0.15 0.15 64 1016.4
20210301030023 52 56 7.0 14.0 0.00 0.15 0.15 62 1016.4
20210301025037 52 56 4.0 10.0 0.00 0.15 0.15 64 1016.3
20210301024021 52 58 6.0 20.0 0.00 0.15 0.15 65 1016.0
20210301023051 53 35 5.0 14.0 0.00 0.15 0.15 61 1015.3
20210301022022 54 48 5.0 15.0 0.00 0.15 0.15 60 1015.3
20210301021027 54 54 10.0 21.0 0.00 0.15 0.15 61 1015.1
20210301020036 54 28 10.0 18.0 0.00 0.15 0.15 63 1014.9
20210301015021 54 11 9.0 17.0 0.00 0.15 0.15 67 1015.0
20210301014025 54 24 6.0 14.0 0.00 0.15 0.15 68 1015.1
20210301013034 54 14 7.0 14.0 0.00 0.15 0.15 68 1015.1
20210301012028 54 31 5.0 16.0 0.00 0.15 0.15 68 1015.1
20210301011025 54 3 7.0 15.0 0.00 0.15 0.15 68 1014.6
20210301010044 54 14 7.0 16.0 0.00 0.15 0.15 69 1014.4
20210301005331 54 29 7.0 18.0 0.00 0.15 0.15 70 1014.2
20210301004027 54 19 5.0 12.0 0.00 0.15 0.15 72 1014.2
20210301003023 54 354 6.0 15.0 0.00 0.15 0.15 74 1014.3
20210301002024 54 7 6.0 16.0 0.00 0.15 0.15 76 1013.9
20210301001023 55 3 9.0 14.0 0.00 0.15 0.15 76 1013.8
20210301000022 55 354 4.0 14.0 0.00 0.15 0.15 77 1013.5
20210228235139 55 4 5.0 14.0 0.00 0.15 0.15 78 1013.4
20210228234031 55 358 5.0 15.0 0.00 0.15 0.15 78 1013.3
20210228233027 56 13 5.0 13.0 0.00 0.15 0.15 78 1013.5
20210228232024 56 9 6.0 13.0 0.00 0.15 0.15 78 1013.3
20210228231024 57 12 6.0 9.0 0.00 0.15 0.15 78 1013.2
20210228230022 57 351 4.0 12.0 0.00 0.15 0.15 79 1012.8
20210228225043 57 0 7.0 14.0 0.00 0.15 0.15 80 1012.5
20210228224019 57 19 9.0 15.0 0.00 0.15 0.15 81 1012.1
20210228223027 57 17 6.0 13.0 0.00 0.15 0.15 81 1012.0
20210228222026 57 44 8.0 15.0 0.00 0.15 0.15 81 1011.5
20210228221020 57 32 8.0 13.0 0.00 0.15 0.15 81 1011.3
20210228220035 57 24 7.0 12.0 0.00 0.15 0.15 81 1011.2
20210228215114 57 23 9.0 17.0 0.00 0.15 0.15 82 1011.3
20210228214020 57 30 6.0 17.0 0.00 0.15 0.15 82 1011.4
20210228213025 57 2 9.0 20.0 0.00 0.15 0.15 82 1011.1
20210228212021 57 10 9.0 22.0 0.00 0.15 0.15 83 1011.6
20210228211032 58 0 12.0 21.0 0.00 0.15 0.15 84 1011.8
20210228210021 58 354 9.0 22.0 0.00 0.15 0.15 85 1011.8
20210228205206 58 355 12.0 20.0 0.10 0.15 0.15 86 1011.7
20210228204020 59 352 11.0 17.0 0.14 0.15 0.15 86 1011.6
20210228203025 61 332 7.0 16.0 0.15 0.15 0.15 87 1011.4
20210228202027 62 7 7.0 16.0 0.15 0.15 0.15 88 1010.9
20210228201021 63 341 6.0 13.0 0.15 0.15 0.15 88 1010.9
20210228200027 65 0 10.0 15.0 0.15 0.15 0.15 88 1010.8
20210228195027 65 327 5.0 8.0 0.05 0.05 0.05 89 1010.7
20210228194031 64 357 5.0 9.0 0.01 0.01 0.01 88 1010.7
20210228193039 64 332 3.0 8.0 0.00 0.00 0.00 87 1010.8
20210228192020 65 320 3.0 7.0 0.00 0.00 0.00 84 1010.9
20210228191022 66 347 3.0 10.0 0.00 0.00 0.00 81 1010.7
20210228190023 67 326 6.0 13.0 0.00 0.01 0.00 79 1010.9
20210228185023 68 334 6.0 13.0 0.00 0.01 0.00 79 1010.8
20210228184017 69 19 4.0 8.0 0.00 0.01 0.00 78 1010.4
20210228183052 71 354 4.0 22.0 0.00 0.01 0.00 74 1010.4
20210228182025 75 245 8.0 17.0 0.00 0.02 0.00 75 1010.5
20210228181034 75 218 8.0 17.0 0.00 0.02 0.00 76 1010.7
20210228180026 75 245 5.0 13.0 0.00 0.02 0.00 77 1010.9
20210228175051 74 214 9.0 18.0 0.00 0.02 0.00 77 1011.0
20210228174020 73 255 5.0 10.0 0.00 0.02 0.00 81 1011.0
20210228173020 72 245 6.0 14.0 0.00 0.02 0.00 81 1011.2
20210228172020 72 227 7.0 14.0 0.00 0.02 0.00 80 1011.1
20210228171018 73 211 5.0 12.0 0.00 0.02 0.00 80 1010.8
20210228170020 73 212 8.0 12.0 0.00 0.02 0.00 79 1010.6
20210228165029 73 216 7.0 12.0 0.00 0.02 0.00 81 1010.4
20210228164030 72 247 5.0 16.0 0.00 0.02 0.00 82 1010.6
20210228163043 72 248 5.0 12.0 0.00 0.02 0.00 83 1010.8
20210228162022 71 223 5.0 13.0 0.00 0.02 0.00 83 1010.9
20210228161029 71 226 6.0 16.0 0.00 0.02 0.00 84 1011.2
20210228160023 71 221 4.0 13.0 0.00 0.02 0.00 84 1011.3
20210228155030 71 242 6.0 13.0 0.00 0.02 0.00 85 1011.4
20210228154024 71 243 5.0 10.0 0.00 0.02 0.00 84 1011.3
20210228153035 71 223 3.0 10.0 0.00 0.02 0.00 85 1011.2
20210228152017 71 221 3.0 8.0 0.00 0.02 0.00 85 1010.9
20210228151021 71 188 5.0 8.0 0.00 0.02 0.00 86 1011.0
20210228150027 70 189 4.0 8.0 0.00 0.02 0.00 87 1010.9
20210228145019 70 205 3.0 9.0 0.00 0.02 0.00 87 1010.9
20210228144020 70 222 3.0 9.0 0.00 0.02 0.00 88 1010.8
20210228143118 69 217 5.0 10.0 0.00 0.02 0.00 89 1010.8
20210228142022 69 217 6.0 13.0 0.00 0.02 0.00 89 1011.1
20210228141018 69 229 5.0 7.0 0.00 0.02 0.00 90 1010.8
20210228140019 69 215 4.0 13.0 0.00 0.02 0.00 90 1010.9
20210228135019 68 226 4.0 9.0 0.00 0.02 0.00 90 1010.9
20210228134021 68 225 3.0 10.0 0.00 0.02 0.00 90 1010.9
20210228133049 68 225 5.0 9.0 0.00 0.02 0.00 90 1010.6
20210228132028 68 212 5.0 10.0 0.00 0.02 0.00 90 1010.5
20210228131018 68 240 5.0 12.0 0.00 0.02 0.00 90 1010.6
20210228130027 68 217 7.0 13.0 0.00 0.02 0.00 89 1010.5
20210228125023 68 238 7.0 13.0 0.00 0.02 0.00 89 1010.6
20210228124022 68 210 5.0 15.0 0.00 0.02 0.00 89 1010.7
20210228123102 69 211 5.0 10.0 0.00 0.02 0.00 89 1010.4
20210228122021 68 210 5.0 9.0 0.00 0.02 0.00 89 1010.6
20210228121019 69 236 4.0 10.0 0.00 0.02 0.00 89 1010.7
20210228120020 69 216 5.0 10.0 0.00 0.02 0.00 89 1010.5
20210228115346 69 228 5.0 10.0 0.00 0.02 0.00 89 1010.2
20210228114030 69 240 4.0 10.0 0.00 0.02 0.00 89 1010.2
20210228113043 69 224 5.0 13.0 0.00 0.02 0.00 89 1009.8
20210228112022 69 228 6.0 12.0 0.00 0.02 0.00 89 1009.6
20210228111031 68 214 7.0 15.0 0.00 0.02 0.00 89 1009.4
20210228110021 68 222 8.0 15.0 0.00 0.02 0.00 89 1009.4
20210228105029 68 214 9.0 16.0 0.00 0.02 0.00 89 1009.2
20210228104019 68 203 9.0 15.0 0.00 0.02 0.00 89 1009.2
20210228103057 68 221 7.0 14.0 0.00 0.02 0.00 89 1009.3
20210228102021 68 236 6.0 12.0 0.00 0.02 0.00 89 1009.2
20210228101024 68 225 6.0 14.0 0.00 0.02 0.00 89 1009.1
20210228100036 68 223 6.0 14.0 0.00 0.02 0.00 89 1009.1
20210228095029 68 217 10.0 20.0 0.00 0.02 0.00 89 1009.2
20210228094024 68 224 6.0 14.0 0.00 0.02 0.00 89 1009.2
20210228093028 68 214 5.0 13.0 0.00 0.02 0.00 88 1009.1
20210228092020 68 224 5.0 10.0 0.00 0.02 0.00 88 1009.3
20210228091017 68 235 5.0 10.0 0.00 0.02 0.00 88 1009.3
20210228090028 68 224 5.0 13.0 0.00 0.02 0.00 88 1009.5
20210228085202 68 224 5.0 12.0 0.00 0.02 0.00 88 1009.6
20210228084026 68 235 6.0 13.0 0.00 0.02 0.00 87 1009.7
20210228083021 68 215 7.0 12.0 0.00 0.02 0.00 87 1009.8
20210228082022 68 217 7.0 13.0 0.00 0.02 0.00 87 1009.9
20210228081020 68 225 6.0 15.0 0.00 0.02 0.00 87 1010.1
20210228080026 68 216 6.0 14.0 0.00 0.02 0.00 87 1010.2
20210228075051 68 218 6.0 16.0 0.00 0.02 0.00 87 1010.2
20210228074023 68 226 9.0 16.0 0.00 0.02 0.00 87 1010.2
20210228073029 68 218 9.0 18.0 0.00 0.02 0.00 87 1010.1
20210228072020 68 210 9.0 17.0 0.00 0.02 0.00 87 1010.0
20210228071024 68 213 8.0 16.0 0.00 0.02 0.00 87 1009.8
20210228070032 68 216 8.0 14.0 0.00 0.02 0.00 86 1009.9
20210228065028 68 211 8.0 20.0 0.00 0.02 0.00 86 1010.0
20210228064035 68 204 9.0 18.0 0.00 0.02 0.00 86 1010.2
20210228063254 68 222 9.0 16.0 0.00 0.02 0.00 86 1010.2
20210228062057 68 210 9.0 17.0 0.00 0.02 0.00 86 1010.3
20210228061027 68 211 7.0 14.0 0.00 0.02 0.00 86 1010.5
20210228060031 68 210 7.0 15.0 0.00 0.02 0.00 87 1010.5
20210228055057 68 218 9.0 14.0 0.00 0.02 0.02 87 1010.3
20210228054026 68 213 6.0 15.0 0.00 0.02 0.02 87 1010.2
20210228053149 67 220 7.0 15.0 0.00 0.02 0.02 87 1010.4
20210228052035 67 213 6.0 12.0 0.00 0.02 0.02 88 1010.4
20210228051029 67 208 7.0 13.0 0.00 0.02 0.02 88 1010.4
20210228050027 67 209 6.0 13.0 0.00 0.02 0.02 89 1010.3
20210228045036 67 216 6.0 14.0 0.00 0.02 0.02 90 1010.3
20210228044033 66 217 7.0 14.0 0.00 0.02 0.02 91 1010.5
20210228043027 66 215 6.0 13.0 0.00 0.02 0.02 92 1010.7